createdAt,value
2019-02-22T00:01:47.149Z,99881.44
2019-02-22T00:04:20.839Z,99878.86
2019-02-22T00:06:54.794Z,99886.81
2019-02-22T00:09:28.418Z,99879.80
2019-02-22T00:12:04.057Z,99881.55
2019-02-22T00:14:37.430Z,99874.42
2019-02-22T00:17:11.425Z,99878.34
2019-02-22T00:19:44.904Z,99882.13
2019-02-22T00:22:19.027Z,99882.89
2019-02-22T00:24:52.802Z,99882.88
2019-02-22T00:27:27.657Z,99886.58
2019-02-22T00:30:03.057Z,99887.86
2019-02-22T00:32:37.293Z,99879.77
2019-02-22T00:35:11.597Z,99891.34
2019-02-22T00:37:45.404Z,99884.86
2019-02-22T00:40:19.071Z,99884.15
2019-02-22T00:42:52.663Z,99879.13
2019-02-22T00:45:26.452Z,99882.78
2019-02-22T00:48:00.045Z,99878.99
2019-02-22T00:50:37.157Z,99880.11
2019-02-22T00:53:11.182Z,99883.54
2019-02-22T00:55:44.887Z,99886.20
2019-02-22T00:58:18.625Z,99882.63
2019-02-22T01:00:52.282Z,99877.72
2019-02-22T01:03:27.534Z,99880.98
2019-02-22T01:06:01.227Z,99880.68
2019-02-22T01:08:34.687Z,99873.82
2019-02-22T01:11:08.423Z,99868.34
2019-02-22T01:13:41.906Z,99874.41
2019-02-22T01:16:16.997Z,99873.42
2019-02-22T01:18:50.658Z,99875.14
2019-02-22T01:21:24.448Z,99875.75
2019-02-22T01:23:58.169Z,99875.45
2019-02-22T01:26:32.183Z,99872.25
2019-02-22T01:29:05.602Z,99880.19
2019-02-22T01:31:40.375Z,99871.91
2019-02-22T01:34:14.097Z,99879.80
2019-02-22T01:36:48.440Z,99874.45
2019-02-22T01:39:22.421Z,99880.27
2019-02-22T01:41:55.931Z,99880.06
2019-02-22T01:44:31.046Z,99885.41
2019-02-22T01:47:05.050Z,99885.68
2019-02-22T01:49:39.350Z,99890.50
2019-02-22T01:52:16.942Z,99889.66
2019-02-22T01:54:51.973Z,99892.48
2019-02-22T01:57:25.710Z,99887.37
2019-02-22T01:59:59.355Z,99884.02
2019-02-22T02:02:34.043Z,99879.33
2019-02-22T02:05:08.846Z,99880.05
2019-02-22T02:07:43.756Z,99880.47
2019-02-22T02:10:17.447Z,99882.79
2019-02-22T02:12:51.252Z,99882.22
2019-02-22T02:15:25.192Z,99878.69
2019-02-22T02:17:58.968Z,99883.99
2019-02-22T02:20:32.851Z,99872.27
2019-02-22T02:23:06.658Z,99877.94
2019-02-22T02:25:41.923Z,99882.61
2019-02-22T02:28:15.826Z,99881.98
2019-02-22T02:30:49.381Z,99888.42
2019-02-22T02:33:23.232Z,99879.56
2019-02-22T02:35:57.005Z,99887.48
2019-02-22T02:38:30.884Z,99888.14
2019-02-22T02:41:10.873Z,99888.73
2019-02-22T02:43:41.578Z,99890.65
2019-02-22T02:46:15.128Z,99880.41
2019-02-22T02:48:48.641Z,99887.43
2019-02-22T02:51:22.459Z,99884.67
2019-02-22T02:54:09.651Z,99889.39
2019-02-22T02:56:50.193Z,99886.11
2019-02-22T02:59:23.984Z,99885.79
2019-02-22T03:01:57.762Z,99886.94
2019-02-22T03:04:31.323Z,99887.31
2019-02-22T03:07:04.823Z,99880.71
2019-02-22T03:09:39.900Z,99880.55
2019-02-22T03:12:13.593Z,99880.98
2019-02-22T03:14:59.315Z,99874.92
2019-02-22T03:17:34.213Z,99884.55
2019-02-22T03:20:09.557Z,99878.51
2019-02-22T03:22:43.284Z,99876.34
2019-02-22T03:25:16.965Z,99876.09
2019-02-22T03:27:50.468Z,99871.30
2019-02-22T03:30:24.011Z,99870.31
2019-02-22T03:32:57.575Z,99868.06
2019-02-22T03:35:30.987Z,99863.63
2019-02-22T03:38:06.656Z,99852.78
2019-02-22T03:40:40.308Z,99854.73
2019-02-22T03:43:14.276Z,99848.13
2019-02-22T03:45:47.980Z,99845.95
2019-02-22T03:48:21.459Z,99844.80
2019-02-22T03:50:54.871Z,99846.64
2019-02-22T03:53:28.907Z,99844.86
2019-02-22T03:56:02.504Z,99842.61
2019-02-22T03:58:36.048Z,99843.88
2019-02-22T04:01:11.688Z,99832.25
2019-02-22T04:03:45.488Z,99836.38
2019-02-22T04:06:21.086Z,99828.98
2019-02-22T04:08:54.611Z,99818.00
2019-02-22T04:11:28.260Z,99813.84
2019-02-22T04:14:04.011Z,99798.72
2019-02-22T04:16:38.035Z,99797.22
2019-02-22T04:19:13.119Z,99796.92
2019-02-22T04:21:46.873Z,99785.23
2019-02-22T04:24:20.420Z,99789.00
2019-02-22T04:26:55.222Z,99783.55
2019-02-22T04:29:28.960Z,99777.33
2019-02-22T04:32:02.839Z,99782.53
2019-02-22T04:34:36.740Z,99774.05
2019-02-22T04:37:10.173Z,99781.02
2019-02-22T04:39:43.830Z,99777.43
2019-02-22T04:42:17.654Z,99766.45
2019-02-22T04:44:52.527Z,99772.61
2019-02-22T04:47:26.237Z,99778.58
2019-02-22T04:50:00.233Z,99768.34
2019-02-22T04:52:34.231Z,99762.07
2019-02-22T04:55:07.918Z,99775.86
2019-02-22T04:57:41.740Z,99773.03
2019-02-22T05:00:15.264Z,99762.57
2019-02-22T05:02:49.592Z,99759.23
2019-02-22T05:05:23.380Z,99765.78
2019-02-22T05:07:57.190Z,99764.42
2019-02-22T05:10:31.126Z,99763.44
2019-02-22T05:13:05.663Z,99770.51
2019-02-22T05:15:39.392Z,99769.77
2019-02-22T05:18:12.955Z,99763.53
2019-02-22T05:20:46.771Z,99772.13
2019-02-22T05:23:20.268Z,99778.87
2019-02-22T05:25:54.137Z,99768.41
2019-02-22T05:28:28.582Z,99772.92
2019-02-22T05:31:02.133Z,99764.27
2019-02-22T05:33:36.006Z,99762.39
2019-02-22T05:36:10.067Z,99759.13
2019-02-22T05:38:45.342Z,99763.45
2019-02-22T05:41:19.396Z,99757.91
2019-02-22T05:43:53.096Z,99754.67
2019-02-22T05:46:27.033Z,99749.14
2019-02-22T05:49:00.815Z,99750.50
2019-02-22T05:51:34.697Z,99759.81
2019-02-22T05:54:08.480Z,99750.76
2019-02-22T05:56:42.437Z,99750.36
2019-02-22T05:59:16.283Z,99748.71
2019-02-22T06:01:51.986Z,99746.02
2019-02-22T06:04:25.571Z,99746.16
2019-02-22T06:06:59.448Z,99742.95
2019-02-22T06:09:33.474Z,99747.38
2019-02-22T06:12:07.626Z,99748.23
2019-02-22T06:14:42.096Z,99739.59
2019-02-22T06:17:20.228Z,99742.95
2019-02-22T06:19:52.937Z,99740.73
2019-02-22T06:22:30.063Z,99741.63
2019-02-22T06:25:02.297Z,99746.49
2019-02-22T06:27:36.964Z,99745.36
2019-02-22T06:30:12.098Z,99742.33
2019-02-22T06:32:46.043Z,99740.82
2019-02-22T06:35:19.919Z,99740.69
2019-02-22T06:37:53.569Z,99738.01
2019-02-22T06:40:27.188Z,99741.23
2019-02-22T06:43:01.035Z,99736.77
2019-02-22T06:45:37.397Z,99736.80
2019-02-22T06:48:12.300Z,99740.67
2019-02-22T06:50:50.496Z,99736.05
2019-02-22T06:53:26.046Z,99731.73
2019-02-22T06:56:00.033Z,99740.25
2019-02-22T06:58:35.760Z,99736.36
2019-02-22T07:01:09.388Z,99742.83
2019-02-22T07:03:52.694Z,99734.84
2019-02-22T07:06:26.573Z,99727.91
2019-02-22T07:09:02.411Z,99727.91
2019-02-22T07:11:37.855Z,99736.98
2019-02-22T07:14:11.601Z,99734.74
2019-02-22T07:16:46.576Z,99736.80
2019-02-22T07:19:22.375Z,99733.39
2019-02-22T07:21:58.585Z,99735.22
2019-02-22T07:24:32.869Z,99734.17
2019-02-22T07:27:08.715Z,99724.23
2019-02-22T07:29:42.699Z,99736.73
2019-02-22T07:32:17.486Z,99735.09
2019-02-22T07:34:51.397Z,99734.77
2019-02-22T07:37:25.065Z,99741.86
2019-02-22T07:39:58.980Z,99746.30
2019-02-22T07:42:36.637Z,99749.27
2019-02-22T07:45:15.230Z,99751.70
2019-02-22T07:47:50.238Z,99750.50
2019-02-22T07:50:23.848Z,99757.76
2019-02-22T07:52:57.241Z,99756.15
2019-02-22T07:55:31.115Z,99759.94
2019-02-22T07:58:04.937Z,99756.44
2019-02-22T08:00:39.145Z,99769.17
2019-02-22T08:03:13.502Z,99769.09
2019-02-22T08:05:47.447Z,99772.55
2019-02-22T08:08:22.730Z,99776.45
2019-02-22T08:10:56.309Z,99782.83
2019-02-22T08:13:29.974Z,99784.05
2019-02-22T08:16:03.931Z,99784.38
2019-02-22T08:18:37.729Z,99782.23
2019-02-22T08:21:11.592Z,99782.23
2019-02-22T08:23:45.346Z,99781.25
2019-02-22T08:26:19.026Z,99783.20
2019-02-22T08:28:52.693Z,99780.23
2019-02-22T08:31:26.540Z,99780.31
2019-02-22T08:34:01.899Z,99780.31
2019-02-22T08:36:37.005Z,99791.53
2019-02-22T08:39:10.785Z,99787.83
2019-02-22T08:41:46.527Z,99794.15
2019-02-22T08:44:20.465Z,99797.50
2019-02-22T08:46:54.707Z,99801.11
2019-02-22T08:49:28.694Z,99799.75
2019-02-22T08:52:04.005Z,99803.22
2019-02-22T08:54:46.536Z,99804.50
2019-02-22T08:57:13.022Z,99796.05
2019-02-22T08:59:46.809Z,99795.41
2019-02-22T09:02:21.848Z,99799.38
2019-02-22T09:04:56.936Z,99798.56
2019-02-22T09:07:30.826Z,99801.41
2019-02-22T09:10:04.882Z,99798.70
2019-02-22T09:12:39.759Z,99807.31
2019-02-22T09:15:15.150Z,99802.87
2019-02-22T09:17:48.876Z,99803.98
2019-02-22T09:20:23.798Z,99804.84
2019-02-22T09:22:58.123Z,99813.05
2019-02-22T09:25:31.962Z,99817.41
2019-02-22T09:28:07.133Z,99825.24
2019-02-22T09:30:41.928Z,99824.52
2019-02-22T09:33:15.915Z,99828.53
2019-02-22T09:35:49.799Z,99832.89
2019-02-22T09:38:25.114Z,99835.05
2019-02-22T09:40:59.281Z,99835.78
2019-02-22T09:43:33.092Z,99840.83
2019-02-22T09:46:08.757Z,99844.73
2019-02-22T09:48:44.877Z,99842.41
2019-02-22T09:51:19.339Z,99851.06
2019-02-22T09:53:53.641Z,99856.47
2019-02-22T09:56:28.117Z,99854.14
2019-02-22T09:59:02.997Z,99856.06
2019-02-22T10:01:36.855Z,99859.30
2019-02-22T10:04:11.485Z,99859.49
2019-02-22T10:06:47.363Z,99861.03
2019-02-22T10:09:21.448Z,99863.03
2019-02-22T10:11:56.090Z,99858.25
2019-02-22T10:14:31.419Z,99872.85
2019-02-22T10:17:05.654Z,99880.48
2019-02-22T10:19:40.209Z,99886.46
2019-02-22T10:22:13.686Z,99896.54
2019-02-22T10:24:48.085Z,99887.65
2019-02-22T10:27:22.719Z,99891.38
2019-02-22T10:29:57.021Z,99892.52
2019-02-22T10:32:30.993Z,99893.79
2019-02-22T10:35:05.473Z,99893.80
2019-02-22T10:37:45.105Z,99896.02
2019-02-22T10:40:19.296Z,99896.16
2019-02-22T10:42:54.660Z,99900.07
2019-02-22T10:45:29.027Z,99898.63
2019-02-22T10:48:04.515Z,99899.02
2019-02-22T10:50:38.880Z,99902.20
2019-02-22T10:53:12.695Z,99901.30
2019-02-22T10:55:46.402Z,99905.71
2019-02-22T10:58:22.589Z,99912.48
2019-02-22T11:01:00.224Z,99910.20
2019-02-22T11:03:32.183Z,99912.88
2019-02-22T11:06:07.051Z,99920.22
2019-02-22T11:08:41.439Z,99925.47
2019-02-22T11:11:19.972Z,99929.52
2019-02-22T11:13:58.980Z,99925.27
2019-02-22T11:16:33.929Z,99928.03
2019-02-22T11:19:08.416Z,99928.38
2019-02-22T11:21:49.525Z,99935.86
2019-02-22T11:24:29.804Z,99937.10
2019-02-22T11:27:04.700Z,99942.60
2019-02-22T11:29:39.626Z,99942.34
2019-02-22T11:32:17.181Z,99944.67
2019-02-22T11:34:51.817Z,99940.11
2019-02-22T11:37:27.451Z,99945.55
2019-02-22T11:40:04.050Z,99947.59
2019-02-22T11:42:41.080Z,99952.37
2019-02-22T11:45:20.866Z,99953.68
2019-02-22T11:48:08.725Z,99951.98
2019-02-22T11:50:38.363Z,99950.84
2019-02-22T11:53:13.947Z,99954.16
2019-02-22T11:55:48.829Z,99947.34
2019-02-22T11:58:27.776Z,99954.30
2019-02-22T12:01:02.896Z,99959.94
2019-02-22T12:03:37.542Z,99957.42
2019-02-22T12:06:15.922Z,99956.31
2019-02-22T12:08:50.456Z,99962.09
2019-02-22T12:11:26.093Z,99967.64
2019-02-22T12:14:06.240Z,99964.58
2019-02-22T12:16:46.501Z,99964.40
2019-02-22T12:19:23.486Z,99967.54
2019-02-22T12:21:58.254Z,99970.45
2019-02-22T12:24:32.915Z,99972.55
2019-02-22T12:27:07.332Z,99967.05
2019-02-22T12:29:41.989Z,99973.58
2019-02-22T12:32:15.917Z,99972.47
2019-02-22T12:34:50.669Z,99968.25
2019-02-22T12:37:25.746Z,99970.10
2019-02-22T12:40:00.548Z,99970.10
2019-02-22T12:42:36.315Z,99970.23
2019-02-22T12:45:20.836Z,99969.72
2019-02-22T12:48:00.358Z,99969.48
2019-02-22T12:50:35.993Z,99967.86
2019-02-22T12:53:12.472Z,99971.89
2019-02-22T12:55:49.059Z,99975.11
2019-02-22T12:58:25.369Z,99971.98
2019-02-22T13:01:00.524Z,99967.95
2019-02-22T13:03:47.043Z,99965.78
2019-02-22T13:06:20.067Z,99963.52
2019-02-22T13:08:57.136Z,99970.55
2019-02-22T13:11:32.666Z,99973.03
2019-02-22T13:14:09.391Z,99972.64
2019-02-22T13:16:44.317Z,99980.39
2019-02-22T13:19:19.291Z,99977.81
2019-02-22T13:21:56.298Z,99974.49
2019-02-22T13:24:39.629Z,99971.69
2019-02-22T13:27:14.712Z,99978.73
2019-02-22T13:29:49.219Z,99976.15
2019-02-22T13:32:24.136Z,99980.38
2019-02-22T13:34:58.940Z,99984.48
2019-02-22T13:37:36.340Z,99986.25
2019-02-22T13:40:12.441Z,99989.95
2019-02-22T13:42:47.065Z,99990.98
2019-02-22T13:45:26.760Z,99994.11
2019-02-22T13:47:57.233Z,99991.52
2019-02-22T13:50:31.783Z,99995.98
2019-02-22T13:53:06.217Z,99984.89
2019-02-22T13:55:42.324Z,99990.48
2019-02-22T13:58:17.897Z,99994.02
2019-02-22T14:00:56.622Z,99992.78
2019-02-22T14:03:35.824Z,99989.45
2019-02-22T14:06:10.098Z,99992.86
2019-02-22T14:08:46.066Z,99992.75
2019-02-22T14:11:20.765Z,99986.88
2019-02-22T14:13:55.350Z,99996.05
2019-02-22T14:16:30.872Z,99990.14
2019-02-22T14:19:07.854Z,99990.14
2019-02-22T14:21:44.220Z,99994.16
2019-02-22T14:24:18.956Z,99993.30
2019-02-22T14:26:53.711Z,99993.63
2019-02-22T14:29:28.241Z,99997.84
2019-02-22T14:32:02.789Z,99995.77
2019-02-22T14:34:40.669Z,99994.38
2019-02-22T14:37:15.239Z,99992.11
2019-02-22T14:40:01.015Z,99996.14
2019-02-22T14:42:27.011Z,99995.63
2019-02-22T14:45:10.131Z,99995.30
2019-02-22T14:47:44.947Z,99994.26
2019-02-22T14:50:24.353Z,100002.13
2019-02-22T14:53:18.793Z,99998.75
2019-02-22T14:55:43.911Z,99994.58
2019-02-22T14:58:19.169Z,99997.39
2019-02-22T15:00:53.347Z,99997.58
2019-02-22T15:03:28.512Z,99998.87
2019-02-22T15:06:03.166Z,100000.92
2019-02-22T15:08:39.061Z,100004.22
2019-02-22T15:11:18.113Z,100002.10
2019-02-22T15:13:54.473Z,100003.22
2019-02-22T15:16:29.359Z,99997.34
2019-02-22T15:19:04.653Z,100002.80
2019-02-22T15:21:38.837Z,99997.88
2019-02-22T15:24:14.249Z,100001.55
2019-02-22T15:26:48.753Z,99999.34
2019-02-22T15:29:24.949Z,100007.08
2019-02-22T15:32:00.215Z,100006.13
2019-02-22T15:34:34.433Z,99999.45
2019-02-22T15:37:09.117Z,100005.52
2019-02-22T15:39:43.331Z,100002.93
2019-02-22T15:42:16.830Z,100005.86
2019-02-22T15:44:51.890Z,100010.16
2019-02-22T15:47:25.627Z,100013.25
2019-02-22T15:50:01.337Z,100012.42
2019-02-22T15:52:36.843Z,100010.16
2019-02-22T15:55:14.474Z,100012.62
2019-02-22T15:57:55.268Z,100025.95
2019-02-22T16:00:34.948Z,100018.11
2019-02-22T16:03:08.823Z,100019.87
2019-02-22T16:05:43.523Z,100016.95
2019-02-22T16:08:17.074Z,100018.67
2019-02-22T16:10:51.085Z,100022.46
2019-02-22T16:13:24.829Z,100017.28
2019-02-22T16:15:58.814Z,100020.23
2019-02-22T16:18:32.945Z,100012.64
2019-02-22T16:21:11.058Z,100016.10
2019-02-22T16:23:44.939Z,100016.37
2019-02-22T16:26:18.898Z,100017.58
2019-02-22T16:28:54.111Z,100012.91
2019-02-22T16:31:28.512Z,100024.80
2019-02-22T16:34:02.600Z,100027.34
2019-02-22T16:36:36.461Z,100024.74
2019-02-22T16:39:11.591Z,100034.64
2019-02-22T16:41:47.541Z,100030.66
2019-02-22T16:44:22.119Z,100035.27
2019-02-22T16:46:57.740Z,100030.31
2019-02-22T16:49:31.538Z,100036.23
2019-02-22T16:52:05.294Z,100029.27
2019-02-22T16:54:39.017Z,100035.86
2019-02-22T16:57:13.957Z,100032.28
2019-02-22T16:59:48.081Z,100035.20
2019-02-22T17:02:22.035Z,100033.78
2019-02-22T17:04:55.859Z,100033.28
2019-02-22T17:07:29.852Z,100034.63
2019-02-22T17:10:03.771Z,100038.24
2019-02-22T17:12:37.459Z,100036.25
2019-02-22T17:15:13.548Z,100036.35
2019-02-22T17:17:47.142Z,100035.66
2019-02-22T17:20:23.331Z,100036.76
2019-02-22T17:22:57.168Z,100036.27
2019-02-22T17:25:30.972Z,100030.87
2019-02-22T17:28:04.811Z,100028.28
2019-02-22T17:30:38.525Z,100030.81
2019-02-22T17:33:12.043Z,100030.23
2019-02-22T17:35:45.416Z,100034.34
2019-02-22T17:38:20.065Z,100039.12
2019-02-22T17:40:53.704Z,100037.42
2019-02-22T17:43:29.011Z,100044.12
2019-02-22T17:46:04.020Z,100044.70
2019-02-22T17:48:38.199Z,100041.92
2019-02-22T17:51:13.304Z,100040.08
2019-02-22T17:53:47.167Z,100040.77
2019-02-22T17:56:22.316Z,100038.75
2019-02-22T17:58:59.678Z,100040.16
2019-02-22T18:01:33.169Z,100048.03
2019-02-22T18:04:07.034Z,100044.64
2019-02-22T18:06:42.208Z,100044.02
2019-02-22T18:09:15.924Z,100044.88
2019-02-22T18:11:50.750Z,100039.46
2019-02-22T18:14:24.404Z,100043.91
2019-02-22T18:17:07.729Z,100042.71
2019-02-22T18:19:32.986Z,100039.18
2019-02-22T18:22:07.758Z,100038.70
2019-02-22T18:24:41.382Z,100041.98
2019-02-22T18:27:14.970Z,100040.28
2019-02-22T18:29:50.027Z,100041.55
2019-02-22T18:32:25.230Z,100042.27
2019-02-22T18:34:58.919Z,100043.23
2019-02-22T18:37:32.381Z,100042.45
2019-02-22T18:40:06.956Z,100042.62
2019-02-22T18:42:40.858Z,100040.78
2019-02-22T18:45:15.240Z,100035.42
2019-02-22T18:47:49.120Z,100032.60
2019-02-22T18:50:22.995Z,100029.00
2019-02-22T18:52:56.547Z,100026.86
2019-02-22T18:55:30.156Z,100028.71
2019-02-22T18:58:03.906Z,100029.12
2019-02-22T19:00:38.860Z,100025.62
2019-02-22T19:03:12.609Z,100026.30
2019-02-22T19:05:46.168Z,100028.39
2019-02-22T19:08:19.760Z,100024.22
2019-02-22T19:10:53.678Z,100024.11
2019-02-22T19:13:27.404Z,100027.05
2019-02-22T19:16:00.902Z,100025.38
2019-02-22T19:18:35.823Z,100028.21
2019-02-22T19:21:09.439Z,100023.11
2019-02-22T19:23:43.201Z,100017.05
2019-02-22T19:26:16.636Z,100014.45
2019-02-22T19:28:50.210Z,100011.80
2019-02-22T19:31:24.034Z,100008.16
2019-02-22T19:33:58.572Z,100004.02
2019-02-22T19:36:32.099Z,100000.06
2019-02-22T19:39:06.290Z,100006.27
2019-02-22T19:41:39.913Z,100005.61
2019-02-22T19:44:15.106Z,100005.59
2019-02-22T19:46:49.686Z,100002.85
2019-02-22T19:49:23.545Z,100003.27
2019-02-22T19:51:58.853Z,100006.84
2019-02-22T19:54:32.904Z,100012.38
2019-02-22T19:57:06.590Z,100009.92
2019-02-22T19:59:41.235Z,100012.61
2019-02-22T20:02:14.668Z,100014.17
2019-02-22T20:04:48.750Z,100007.73
2019-02-22T20:07:22.506Z,100009.92
2019-02-22T20:09:56.285Z,100011.39
2019-02-22T20:12:29.994Z,100006.55
2019-02-22T20:15:03.516Z,100006.04
2019-02-22T20:17:37.239Z,100004.70
2019-02-22T20:20:19.142Z,100003.87
2019-02-22T20:22:52.930Z,100006.77
2019-02-22T20:25:28.691Z,100005.10
2019-02-22T20:28:02.370Z,99997.41
2019-02-22T20:30:36.296Z,100003.41
2019-02-22T20:33:10.125Z,100003.81
2019-02-22T20:35:43.765Z,100009.62
2019-02-22T20:38:20.723Z,100004.27
2019-02-22T20:40:54.650Z,99998.06
2019-02-22T20:43:28.370Z,100006.42
2019-02-22T20:46:05.130Z,100005.10
2019-02-22T20:48:39.775Z,100003.41
2019-02-22T20:51:14.701Z,100007.59
2019-02-22T20:53:48.251Z,99996.13
2019-02-22T20:56:21.848Z,100009.61
2019-02-22T20:58:55.611Z,100012.95
2019-02-22T21:01:29.432Z,100013.79
2019-02-22T21:04:03.172Z,100008.05
2019-02-22T21:06:36.722Z,100010.43
2019-02-22T21:09:10.376Z,100007.05
2019-02-22T21:11:44.344Z,100006.00
2019-02-22T21:14:19.893Z,100010.84
2019-02-22T21:16:54.014Z,100008.05
2019-02-22T21:19:29.052Z,100006.00
2019-02-22T21:22:03.002Z,100006.99
2019-02-22T21:24:36.896Z,100012.33
2019-02-22T21:27:10.923Z,100007.36
2019-02-22T21:29:44.399Z,100006.20
2019-02-22T21:32:18.051Z,100003.70
2019-02-22T21:34:51.580Z,100003.36
2019-02-22T21:37:25.253Z,100002.08
2019-02-22T21:39:59.596Z,99999.02
2019-02-22T21:42:33.390Z,100004.65
2019-02-22T21:45:14.712Z,100004.14
2019-02-22T21:47:54.677Z,99998.31
2019-02-22T21:50:25.362Z,99996.36
2019-02-22T21:52:59.128Z,99992.45
2019-02-22T21:55:33.371Z,99987.50
2019-02-22T21:58:07.450Z,99990.39
2019-02-22T22:00:40.949Z,99984.84
2019-02-22T22:03:14.631Z,99988.50
2019-02-22T22:05:48.629Z,99990.67
2019-02-22T22:08:22.394Z,99993.52
2019-02-22T22:10:56.047Z,99997.56
2019-02-22T22:13:29.643Z,99993.67
2019-02-22T22:16:03.933Z,99998.86
2019-02-22T22:18:38.987Z,99999.97
2019-02-22T22:21:12.297Z,99991.63
2019-02-22T22:23:45.801Z,99992.81
2019-02-22T22:26:19.380Z,99989.30
2019-02-22T22:28:53.157Z,99989.35
2019-02-22T22:31:26.985Z,99985.14
2019-02-22T22:34:00.910Z,99980.84
2019-02-22T22:36:35.857Z,99983.52
2019-02-22T22:39:09.983Z,99988.85
2019-02-22T22:41:43.568Z,99985.80
2019-02-22T22:44:18.580Z,99986.80
2019-02-22T22:46:52.539Z,99983.34
2019-02-22T22:49:26.179Z,99992.19
2019-02-22T22:51:59.973Z,99982.59
2019-02-22T22:54:33.716Z,99993.89
2019-02-22T22:57:09.310Z,99984.66
2019-02-22T22:59:42.682Z,99986.55
2019-02-22T23:02:16.568Z,99984.99
2019-02-22T23:04:50.989Z,99989.34
2019-02-22T23:07:25.070Z,99989.28
2019-02-22T23:09:59.192Z,99992.90
2019-02-22T23:12:32.900Z,99993.19
2019-02-22T23:15:06.676Z,99998.14
2019-02-22T23:17:40.464Z,100005.50
2019-02-22T23:20:16.348Z,100000.31
2019-02-22T23:22:51.959Z,100017.63
2019-02-22T23:25:25.740Z,100012.83
2019-02-22T23:28:00.191Z,100015.03
2019-02-22T23:30:33.759Z,100016.70
2019-02-22T23:33:08.773Z,100021.14
2019-02-22T23:35:42.377Z,100024.86
2019-02-22T23:38:16.236Z,100035.77
2019-02-22T23:40:51.602Z,100033.94
2019-02-22T23:43:25.536Z,100031.78
2019-02-22T23:45:59.187Z,100039.64
2019-02-22T23:48:32.979Z,100032.70
2019-02-22T23:51:08.073Z,100043.58
2019-02-22T23:53:43.279Z,100041.84
2019-02-22T23:56:17.282Z,100045.81
2019-02-22T23:58:51.194Z,100043.83
